Shavano Park, Texas
Current Conditions -  °F | °C
As of 2:51 PM on Thursday 23 Oct 2014 (Local Time) from KSAT Reporting Station
Scattered Clouds Scattered Clouds  
Wind Chill: 82°   Ceiling: Unl
Heat Index: 82°   Visibility: 10mi
Dew Point: 59°   Wind: 3mph
Humidity: 45%   Direction: NA
Pressure: 30.08"   Gusts: NA
Location:  29.5766°N, 98.5421°W
Report Text: KSAT 231951Z VRB03KT 10SM FEW050 SCT100 28/15 A3008 RMK AO2 SLP169 T02780150
Loading
Personal Weather Stations






























Interactive Weather Map
Tropical Storm Tracking
New forecast layout! Learn more

10-Day Weather Forecast

Advertisements
Track Severe Weather on mobile